createdAt,value
2018-05-26T00:00:55.116Z,4.80
2018-05-26T00:03:22.532Z,4.43
2018-05-26T00:05:50.698Z,4.40
2018-05-26T00:08:18.119Z,4.73
2018-05-26T00:10:45.523Z,4.40
2018-05-26T00:13:12.936Z,4.67
2018-05-26T00:15:40.402Z,4.40
2018-05-26T00:18:07.800Z,4.67
2018-05-26T00:20:35.239Z,4.73
2018-05-26T00:23:02.645Z,5.00
2018-05-26T00:25:30.088Z,5.13
2018-05-26T00:27:57.543Z,4.67
2018-05-26T00:30:24.944Z,4.47
2018-05-26T00:32:52.365Z,4.60
2018-05-26T00:35:20.549Z,5.10
2018-05-26T00:37:48.735Z,4.73
2018-05-26T00:40:16.176Z,4.70
2018-05-26T00:42:43.586Z,4.93
2018-05-26T00:45:11.056Z,4.40
2018-05-26T00:47:38.517Z,4.80
2018-05-26T00:50:05.920Z,4.73
2018-05-26T00:52:33.356Z,5.00
2018-05-26T00:55:00.760Z,4.87
2018-05-26T00:57:28.173Z,4.80
2018-05-26T00:59:56.384Z,5.00
2018-05-26T01:02:24.545Z,5.17
2018-05-26T01:04:52.751Z,4.60
2018-05-26T01:07:20.230Z,5.87
2018-05-26T01:09:47.645Z,5.20
2018-05-26T01:12:15.062Z,5.30
2018-05-26T01:14:42.457Z,5.47
2018-05-26T01:17:09.876Z,5.43
2018-05-26T01:19:38.058Z,5.00
2018-05-26T01:22:06.256Z,5.80
2018-05-26T01:24:33.838Z,5.00
2018-05-26T01:27:01.307Z,5.87
2018-05-26T01:29:28.732Z,5.43
2018-05-26T01:31:56.900Z,5.50
2018-05-26T01:34:24.314Z,4.80
2018-05-26T01:36:52.484Z,5.13
2018-05-26T01:39:20.659Z,5.77
2018-05-26T01:41:48.069Z,4.80
2018-05-26T01:44:15.475Z,4.97
2018-05-26T01:46:42.883Z,5.27
2018-05-26T01:49:11.067Z,5.07
2018-05-26T01:51:39.275Z,6.20
2018-05-26T01:54:07.424Z,6.30
2018-05-26T01:56:35.613Z,6.03
2018-05-26T01:59:03.112Z,5.67
2018-05-26T02:01:30.517Z,5.10
2018-05-26T02:03:57.952Z,5.40
2018-05-26T02:06:26.107Z,5.30
2018-05-26T02:08:54.314Z,5.27
2018-05-26T02:11:21.720Z,5.00
2018-05-26T02:13:49.140Z,6.13
2018-05-26T02:16:16.599Z,6.57
2018-05-26T02:18:44.784Z,6.13
2018-05-26T02:21:13.000Z,5.43
2018-05-26T02:23:40.460Z,5.37
2018-05-26T02:26:07.868Z,4.70
2018-05-26T02:28:35.282Z,5.53
2018-05-26T02:31:03.452Z,5.63
2018-05-26T02:33:30.958Z,5.50
2018-05-26T02:35:58.361Z,5.10
2018-05-26T02:38:25.764Z,5.13
2018-05-26T02:40:53.940Z,5.50
2018-05-26T02:43:21.361Z,5.57
2018-05-26T02:45:48.810Z,5.93
2018-05-26T02:48:16.241Z,6.00
2018-05-26T02:50:43.640Z,5.40
2018-05-26T02:53:11.816Z,5.83
2018-05-26T02:55:39.993Z,6.43
2018-05-26T02:58:07.496Z,5.30
2018-05-26T03:00:34.956Z,7.03
2018-05-26T03:03:02.429Z,5.57
2018-05-26T03:05:36.714Z,5.60
2018-05-26T03:08:09.908Z,5.40
2018-05-26T03:10:43.012Z,6.13
2018-05-26T03:13:16.134Z,5.30
2018-05-26T03:15:54.196Z,5.77
2018-05-26T03:18:21.615Z,5.73
2018-05-26T03:20:49.032Z,5.50
2018-05-26T03:23:16.450Z,6.00
2018-05-26T03:25:43.952Z,5.67
2018-05-26T03:28:11.368Z,6.33
2018-05-26T03:30:38.801Z,5.77
2018-05-26T03:33:06.260Z,5.73
2018-05-26T03:35:33.669Z,5.73
2018-05-26T03:38:01.209Z,5.97
2018-05-26T03:40:28.633Z,5.70
2018-05-26T03:42:56.853Z,5.93
2018-05-26T03:45:24.264Z,6.73
2018-05-26T03:47:51.672Z,5.70
2018-05-26T03:50:19.179Z,5.90
2018-05-26T03:52:46.607Z,6.07
2018-05-26T03:55:35.592Z,6.33
2018-05-26T03:58:15.592Z,6.63
2018-05-26T04:00:43.001Z,6.37
2018-05-26T04:03:10.500Z,5.73
2018-05-26T04:05:37.968Z,6.30
2018-05-26T04:08:05.371Z,6.00
2018-05-26T04:10:32.780Z,5.63
2018-05-26T04:13:01.876Z,6.40
2018-05-26T04:15:29.389Z,6.27
2018-05-26T04:17:56.806Z,6.37
2018-05-26T04:20:24.211Z,6.07
2018-05-26T04:22:52.386Z,6.10
2018-05-26T04:25:20.592Z,6.10
2018-05-26T04:27:48.802Z,5.63
2018-05-26T04:30:16.238Z,6.17
2018-05-26T04:32:44.445Z,6.13
2018-05-26T04:35:12.730Z,5.53
2018-05-26T04:37:40.892Z,6.67
2018-05-26T04:40:09.085Z,6.10
2018-05-26T04:42:37.244Z,6.47
2018-05-26T04:45:04.662Z,6.17
2018-05-26T04:47:32.892Z,5.95
2018-05-26T04:50:00.301Z,7.10
2018-05-26T04:52:27.705Z,6.63
2018-05-26T04:54:55.115Z,6.53
2018-05-26T04:57:23.284Z,5.93
2018-05-26T04:59:50.795Z,6.40
2018-05-26T05:02:18.275Z,6.97
2018-05-26T05:04:45.686Z,6.60
2018-05-26T05:07:13.209Z,6.30
2018-05-26T05:09:40.621Z,6.50
2018-05-26T05:12:08.041Z,6.10
2018-05-26T05:14:35.455Z,6.20
2018-05-26T05:17:02.856Z,6.37
2018-05-26T05:19:31.068Z,6.83
2018-05-26T05:21:58.478Z,6.30
2018-05-26T05:24:25.894Z,6.50
2018-05-26T05:26:53.481Z,6.70
2018-05-26T05:29:20.945Z,6.87
2018-05-26T05:31:48.408Z,6.67
2018-05-26T05:34:15.819Z,6.13
2018-05-26T05:36:43.239Z,6.23
2018-05-26T05:39:10.650Z,6.53
2018-05-26T05:41:38.081Z,6.60
2018-05-26T05:44:05.548Z,6.57
2018-05-26T05:46:34.045Z,6.45
2018-05-26T05:49:01.459Z,7.43
2018-05-26T05:51:28.880Z,6.50
2018-05-26T05:53:57.063Z,6.13
2018-05-26T05:56:24.570Z,6.80
2018-05-26T05:58:51.969Z,7.13
2018-05-26T06:01:19.477Z,7.90
2018-05-26T06:03:46.962Z,6.93
2018-05-26T06:06:14.380Z,7.37
2018-05-26T06:08:41.782Z,6.53
2018-05-26T06:11:09.244Z,6.70
2018-05-26T06:13:36.711Z,6.60
2018-05-26T06:16:04.184Z,6.67
2018-05-26T06:18:31.593Z,6.87
2018-05-26T06:20:59.014Z,6.50
2018-05-26T06:23:27.183Z,6.43
2018-05-26T06:25:55.356Z,6.77
2018-05-26T06:28:22.876Z,6.60
2018-05-26T06:30:50.276Z,7.30
2018-05-26T06:33:17.706Z,6.93
2018-05-26T06:35:45.161Z,7.37
2018-05-26T06:38:12.643Z,6.60
2018-05-26T06:40:40.058Z,5.90
2018-05-26T06:43:07.473Z,6.80
2018-05-26T06:45:34.941Z,7.07
2018-05-26T06:48:02.404Z,7.23
2018-05-26T06:50:29.879Z,6.67
2018-05-26T06:52:57.288Z,7.50
2018-05-26T06:55:24.696Z,6.70
2018-05-26T06:57:52.872Z,7.43
2018-05-26T07:00:21.107Z,7.63
2018-05-26T07:02:48.480Z,6.87
2018-05-26T07:05:15.901Z,6.07
2018-05-26T07:07:44.115Z,6.30
2018-05-26T07:10:11.583Z,7.10
2018-05-26T07:12:39.734Z,7.37
2018-05-26T07:15:07.920Z,7.37
2018-05-26T07:17:36.102Z,6.20
2018-05-26T07:20:03.606Z,6.37
2018-05-26T07:22:31.025Z,7.10
2018-05-26T07:24:58.449Z,7.23
2018-05-26T07:27:25.860Z,6.77
2018-05-26T07:29:53.276Z,6.80
2018-05-26T07:32:20.702Z,7.43
2018-05-26T07:34:48.132Z,7.50
2018-05-26T07:37:15.591Z,6.53
2018-05-26T07:39:43.058Z,6.50
2018-05-26T07:42:10.464Z,7.10
2018-05-26T07:44:37.891Z,6.90
2018-05-26T07:47:05.311Z,6.90
2018-05-26T07:49:32.726Z,6.43
2018-05-26T07:52:00.145Z,6.90
2018-05-26T07:54:27.561Z,7.23
2018-05-26T07:56:55.033Z,6.80
2018-05-26T07:59:22.448Z,8.40
2018-05-26T08:01:49.873Z,6.63
2018-05-26T08:04:17.465Z,8.00
2018-05-26T08:06:44.877Z,6.90
2018-05-26T08:09:13.084Z,6.77
2018-05-26T08:11:40.497Z,6.90
2018-05-26T08:14:07.930Z,7.60
2018-05-26T08:16:36.516Z,7.20
2018-05-26T08:19:03.988Z,7.93
2018-05-26T08:21:31.452Z,7.03
2018-05-26T08:23:58.864Z,6.87
2018-05-26T08:26:26.277Z,7.23
2018-05-26T08:28:54.461Z,6.60
2018-05-26T08:31:22.671Z,7.30
2018-05-26T08:33:50.895Z,7.57
2018-05-26T08:36:19.017Z,6.50
2018-05-26T08:38:47.200Z,6.77
2018-05-26T08:41:15.422Z,6.57
2018-05-26T08:43:42.816Z,6.43
2018-05-26T08:46:10.252Z,6.50
2018-05-26T08:48:38.404Z,7.57
2018-05-26T08:51:07.201Z,6.73
2018-05-26T08:53:36.212Z,6.40
2018-05-26T08:56:04.384Z,6.73
2018-05-26T08:58:31.788Z,6.87
2018-05-26T09:00:59.198Z,7.43
2018-05-26T09:03:26.635Z,7.17
2018-05-26T09:05:54.104Z,7.17
2018-05-26T09:08:21.510Z,6.73
2018-05-26T09:10:48.948Z,6.87
2018-05-26T09:13:16.360Z,6.80
2018-05-26T09:15:43.869Z,7.03
2018-05-26T09:18:11.336Z,7.00
2018-05-26T09:20:38.752Z,7.63
2018-05-26T09:23:07.668Z,6.90
2018-05-26T09:25:35.189Z,7.37
2018-05-26T09:28:02.609Z,7.30
2018-05-26T09:30:30.112Z,8.97
2018-05-26T09:32:57.536Z,7.90
2018-05-26T09:35:25.065Z,8.30
2018-05-26T09:37:52.532Z,7.40
2018-05-26T09:40:20.720Z,6.33
2018-05-26T09:42:48.187Z,8.10
2018-05-26T09:45:16.354Z,6.97
2018-05-26T09:47:44.549Z,7.67
2018-05-26T09:50:11.989Z,7.50
2018-05-26T09:52:39.516Z,7.07
2018-05-26T09:55:07.583Z,7.60
2018-05-26T09:57:35.022Z,7.90
2018-05-26T10:00:02.471Z,7.57
2018-05-26T10:02:29.920Z,8.20
2018-05-26T10:04:57.349Z,7.63
2018-05-26T10:07:24.834Z,7.17
2018-05-26T10:09:52.292Z,7.37
2018-05-26T10:12:19.726Z,7.80
2018-05-26T10:14:47.938Z,7.77
2018-05-26T10:17:15.423Z,7.87
2018-05-26T10:19:42.876Z,7.97
2018-05-26T10:22:10.329Z,7.80
2018-05-26T10:24:38.031Z,7.60
2018-05-26T10:27:05.447Z,7.10
2018-05-26T10:29:33.177Z,7.60
2018-05-26T10:32:00.748Z,7.00
2018-05-26T10:34:28.199Z,6.93
2018-05-26T10:36:59.152Z,7.37
2018-05-26T10:39:27.724Z,8.60
2018-05-26T10:41:55.336Z,7.80
2018-05-26T10:44:22.763Z,7.67
2018-05-26T10:46:50.282Z,7.40
2018-05-26T10:49:17.729Z,7.20
2018-05-26T10:51:45.145Z,7.60
2018-05-26T10:54:12.564Z,6.80
2018-05-26T10:56:39.989Z,6.53
2018-05-26T10:59:07.497Z,7.37
2018-05-26T11:01:34.978Z,6.80
2018-05-26T11:04:02.440Z,6.77
2018-05-26T11:09:25.143Z,7.47
2018-05-26T11:11:52.563Z,6.40
2018-05-26T11:14:19.977Z,6.67
2018-05-26T11:16:47.482Z,6.90
2018-05-26T11:19:14.892Z,6.90
2018-05-26T11:21:43.100Z,7.10
2018-05-26T11:24:10.555Z,7.53
2018-05-26T11:26:37.936Z,6.70
2018-05-26T11:29:05.348Z,6.53
2018-05-26T11:31:32.777Z,6.40
2018-05-26T11:34:00.187Z,6.17
2018-05-26T11:36:27.796Z,6.07
2018-05-26T11:38:55.976Z,5.90
2018-05-26T11:41:24.162Z,6.10
2018-05-26T11:43:52.775Z,6.62
2018-05-26T11:46:20.282Z,7.30
2018-05-26T11:48:47.756Z,7.20
2018-05-26T11:51:15.183Z,6.60
2018-05-26T11:53:42.604Z,6.40
2018-05-26T11:56:10.018Z,6.33
2018-05-26T11:58:37.435Z,6.43
2018-05-26T12:01:04.899Z,6.23
2018-05-26T12:03:32.329Z,6.03
2018-05-26T12:05:59.907Z,6.50
2018-05-26T12:08:27.345Z,7.50
2018-05-26T12:10:55.551Z,7.70
2018-05-26T12:13:23.741Z,6.90
2018-05-26T12:15:51.902Z,6.90
2018-05-26T12:18:20.125Z,6.40
2018-05-26T12:20:48.212Z,6.83
2018-05-26T12:23:15.632Z,6.33
2018-05-26T12:25:43.038Z,7.07
2018-05-26T12:28:10.453Z,7.10
2018-05-26T12:30:37.860Z,6.73
2018-05-26T12:33:05.335Z,5.77
2018-05-26T12:35:33.488Z,5.93
2018-05-26T12:38:01.664Z,5.60
2018-05-26T12:40:29.068Z,6.27
2018-05-26T12:42:56.489Z,7.00
2018-05-26T12:45:23.944Z,6.87
2018-05-26T12:47:51.320Z,5.80
2018-05-26T12:50:18.752Z,6.60
2018-05-26T12:52:46.179Z,6.10
2018-05-26T12:55:13.580Z,6.80
2018-05-26T12:57:41.005Z,5.87
2018-05-26T13:00:08.414Z,7.07
2018-05-26T13:02:35.816Z,6.00
2018-05-26T13:05:03.244Z,6.60
2018-05-26T13:07:30.656Z,6.40
2018-05-26T13:09:58.072Z,5.73
2018-05-26T13:12:26.313Z,6.67
2018-05-26T13:14:53.721Z,6.50
2018-05-26T13:17:21.232Z,5.43
2018-05-26T13:19:48.692Z,5.83
2018-05-26T13:22:16.118Z,5.50
2018-05-26T13:24:44.287Z,5.60
2018-05-26T13:27:11.796Z,5.40
2018-05-26T13:29:39.323Z,4.73
2018-05-26T13:32:06.709Z,5.57
2018-05-26T13:34:34.929Z,5.40
2018-05-26T13:37:02.392Z,4.97
2018-05-26T13:39:29.872Z,5.67
2018-05-26T13:41:57.311Z,5.80
2018-05-26T13:44:24.721Z,5.50
2018-05-26T13:46:52.172Z,6.10
2018-05-26T13:49:19.609Z,6.53
2018-05-26T13:51:47.080Z,6.47
2018-05-26T13:54:15.310Z,5.50
2018-05-26T13:56:42.666Z,5.97
2018-05-26T13:59:10.083Z,5.20
2018-05-26T14:01:37.489Z,5.77
2018-05-26T14:04:04.917Z,5.80
2018-05-26T14:06:32.443Z,6.83
2018-05-26T14:09:00.629Z,6.30
2018-05-26T14:11:28.039Z,5.80
2018-05-26T14:13:55.473Z,6.30
2018-05-26T14:16:22.886Z,5.60
2018-05-26T14:18:50.326Z,5.80
2018-05-26T14:21:17.765Z,5.80
2018-05-26T14:23:45.193Z,6.50
2018-05-26T14:26:12.596Z,5.87
2018-05-26T14:28:40.012Z,5.77
2018-05-26T14:31:07.426Z,5.60
2018-05-26T14:33:34.841Z,5.77
2018-05-26T14:36:02.245Z,5.53
2018-05-26T14:38:30.456Z,5.63
2018-05-26T14:40:57.871Z,5.47
2018-05-26T14:43:25.280Z,5.30
2018-05-26T14:45:53.452Z,5.80
2018-05-26T14:48:21.672Z,5.80
2018-05-26T14:50:49.152Z,5.60
2018-05-26T14:53:16.567Z,5.70
2018-05-26T14:55:43.972Z,5.83
2018-05-26T14:58:11.480Z,6.27
2018-05-26T15:00:38.870Z,6.00
2018-05-26T15:03:06.289Z,6.37
2018-05-26T15:05:33.699Z,6.63
2018-05-26T15:08:01.114Z,6.60
2018-05-26T15:10:28.560Z,6.37
2018-05-26T15:12:56.831Z,6.33
2018-05-26T15:15:24.248Z,5.60
2018-05-26T15:17:51.646Z,6.90
2018-05-26T15:20:19.081Z,5.80
2018-05-26T15:22:46.566Z,6.20
2018-05-26T15:25:13.972Z,6.27
2018-05-26T15:27:42.192Z,6.40
2018-05-26T15:30:09.599Z,6.77
2018-05-26T15:32:37.004Z,7.20
2018-05-26T15:35:05.218Z,6.47
2018-05-26T15:37:32.708Z,5.80
2018-05-26T15:40:00.164Z,6.30
2018-05-26T15:42:28.372Z,6.80
2018-05-26T15:44:55.782Z,6.80
2018-05-26T15:47:23.191Z,6.90
2018-05-26T15:49:50.662Z,6.23
2018-05-26T15:52:18.105Z,9.10
2018-05-26T15:54:46.279Z,6.00
2018-05-26T15:57:14.180Z,6.70
2018-05-26T15:59:41.593Z,7.03
2018-05-26T16:02:09.000Z,7.17
2018-05-26T16:04:37.197Z,6.47
2018-05-26T16:07:04.774Z,6.80
2018-05-26T16:09:32.189Z,6.90
2018-05-26T16:11:59.601Z,6.97
2018-05-26T16:14:27.773Z,6.80
2018-05-26T16:16:55.952Z,7.20
2018-05-26T16:19:24.161Z,6.97
2018-05-26T16:21:51.582Z,7.60
2018-05-26T16:24:19.015Z,6.30
2018-05-26T16:26:46.424Z,6.90
2018-05-26T16:29:14.754Z,7.00
2018-05-26T16:31:42.164Z,6.50
2018-05-26T16:34:09.581Z,7.23
2018-05-26T16:36:37.761Z,6.90
2018-05-26T16:39:05.944Z,6.80
2018-05-26T16:41:34.157Z,6.40
2018-05-26T16:44:01.564Z,7.10
2018-05-26T16:46:28.985Z,5.87
2018-05-26T16:48:56.396Z,6.83
2018-05-26T16:51:23.855Z,5.97
2018-05-26T16:53:51.301Z,7.53
2018-05-26T16:56:18.782Z,7.83
2018-05-26T16:58:46.236Z,9.80
2018-05-26T17:01:15.295Z,7.70
2018-05-26T17:03:42.813Z,7.70
2018-05-26T17:06:10.988Z,8.00
2018-05-26T17:08:38.468Z,7.90
2018-05-26T17:11:05.936Z,7.97
2018-05-26T17:13:33.359Z,7.37
2018-05-26T17:16:00.761Z,7.57
2018-05-26T17:18:28.246Z,11.10
2018-05-26T17:20:56.435Z,7.97
2018-05-26T17:23:23.858Z,7.43
2018-05-26T17:25:51.284Z,7.60
2018-05-26T17:28:18.743Z,7.67
2018-05-26T17:30:46.455Z,12.87
2018-05-26T17:33:13.905Z,9.40
2018-05-26T17:35:41.305Z,8.33
2018-05-26T17:38:09.484Z,8.63
2018-05-26T17:40:36.997Z,9.60
2018-05-26T17:43:04.463Z,9.63
2018-05-26T17:45:31.877Z,10.00
2018-05-26T17:47:59.285Z,6.90
2018-05-26T17:50:27.460Z,6.97
2018-05-26T17:52:55.636Z,7.70
2018-05-26T17:55:23.151Z,7.67
2018-05-26T17:57:50.630Z,7.30
2018-05-26T18:00:18.046Z,8.00
2018-05-26T18:02:47.069Z,8.27
2018-05-26T18:05:16.186Z,7.47
2018-05-26T18:07:43.661Z,7.03
2018-05-26T18:10:11.076Z,7.03
2018-05-26T18:12:38.488Z,6.20
2018-05-26T18:15:06.001Z,10.00
2018-05-26T18:17:33.382Z,7.80
2018-05-26T18:20:00.796Z,7.93
2018-05-26T18:22:28.277Z,7.23
2018-05-26T18:24:56.420Z,7.17
2018-05-26T18:27:23.849Z,7.00
2018-05-26T18:29:51.308Z,7.80
2018-05-26T18:32:18.770Z,7.87
2018-05-26T18:34:47.601Z,8.17
2018-05-26T18:37:15.025Z,7.87
2018-05-26T18:39:42.501Z,11.57
2018-05-26T18:42:09.910Z,8.10
2018-05-26T18:44:37.347Z,6.93
2018-05-26T18:47:04.809Z,8.53
2018-05-26T18:49:32.220Z,8.93
2018-05-26T18:51:59.627Z,10.33
2018-05-26T18:54:27.808Z,8.53
2018-05-26T18:56:55.984Z,11.37
2018-05-26T18:59:24.204Z,10.07
2018-05-26T19:01:51.753Z,8.67
2018-05-26T19:04:19.241Z,8.00
2018-05-26T19:06:47.854Z,11.40
2018-05-26T19:09:15.261Z,9.40
2018-05-26T19:11:42.670Z,7.30
2018-05-26T19:14:10.089Z,7.80
2018-05-26T19:16:37.494Z,7.93
2018-05-26T19:19:05.672Z,8.80
2018-05-26T19:21:33.851Z,8.13
2018-05-26T19:24:02.063Z,8.83
2018-05-26T19:26:29.473Z,9.67
2018-05-26T19:28:56.907Z,9.30
2018-05-26T19:31:24.307Z,8.40
2018-05-26T19:33:51.749Z,9.67
2018-05-26T19:36:19.184Z,9.87
2018-05-26T19:38:48.303Z,10.00
2018-05-26T19:41:15.734Z,12.13
2018-05-26T19:43:43.137Z,12.57
2018-05-26T19:46:10.624Z,12.60
2018-05-26T19:48:38.028Z,12.40
2018-05-26T19:51:05.444Z,11.00
2018-05-26T19:53:32.924Z,8.87
2018-05-26T19:56:00.336Z,8.70
2018-05-26T19:58:27.767Z,9.33
2018-05-26T20:00:55.945Z,10.60
2018-05-26T20:03:23.357Z,11.20
2018-05-26T20:05:50.794Z,10.60
2018-05-26T20:08:18.216Z,9.83
2018-05-26T20:10:45.626Z,10.70
2018-05-26T20:13:13.084Z,7.60
2018-05-26T20:15:40.509Z,6.83
2018-05-26T20:18:07.912Z,6.70
2018-05-26T20:20:35.351Z,7.17
2018-05-26T20:23:02.828Z,5.90
2018-05-26T20:25:30.241Z,6.57
2018-05-26T20:27:57.688Z,6.30
2018-05-26T20:30:25.904Z,6.43
2018-05-26T20:32:53.473Z,5.53
2018-05-26T20:35:20.971Z,5.37
2018-05-26T20:37:48.590Z,4.90
2018-05-26T20:40:16.785Z,5.90
2018-05-26T20:42:44.370Z,6.00
2018-05-26T20:45:11.830Z,5.57
2018-05-26T20:47:39.232Z,5.70
2018-05-26T20:50:06.685Z,5.83
2018-05-26T20:52:34.095Z,6.60
2018-05-26T20:55:01.541Z,6.43
2018-05-26T20:57:29.067Z,6.07
2018-05-26T20:59:57.328Z,6.40
2018-05-26T21:02:24.715Z,6.50
2018-05-26T21:04:52.910Z,6.50
2018-05-26T21:07:20.324Z,6.90
2018-05-26T21:09:48.660Z,5.83
2018-05-26T21:12:16.141Z,5.80
2018-05-26T21:14:43.540Z,6.80
2018-05-26T21:17:10.992Z,6.53
2018-05-26T21:19:38.414Z,6.40
2018-05-26T21:22:05.838Z,6.60
2018-05-26T21:24:33.234Z,6.73
2018-05-26T21:27:00.636Z,6.47
2018-05-26T21:29:28.054Z,6.30
2018-05-26T21:31:55.470Z,6.87
2018-05-26T21:34:23.685Z,6.17
2018-05-26T21:36:51.197Z,6.13
2018-05-26T21:39:19.038Z,7.60
2018-05-26T21:41:46.606Z,7.80
2018-05-26T21:44:14.008Z,6.47
2018-05-26T21:46:41.464Z,8.00
2018-05-26T21:49:08.880Z,8.60
2018-05-26T21:51:36.324Z,5.78
2018-05-26T21:54:03.721Z,5.70
2018-05-26T21:56:31.155Z,5.93
2018-05-26T21:58:58.582Z,5.75
2018-05-26T22:01:26.014Z,5.68
2018-05-26T22:03:54.194Z,6.33
2018-05-26T22:06:22.608Z,6.67
2018-05-26T22:08:50.016Z,6.53
2018-05-26T22:11:17.479Z,6.60
2018-05-26T22:13:44.897Z,6.60
2018-05-26T22:16:13.098Z,6.20
2018-05-26T22:18:41.252Z,6.87
2018-05-26T22:21:09.429Z,6.83
2018-05-26T22:23:36.865Z,7.30
2018-05-26T22:26:04.309Z,8.17
2018-05-26T22:28:32.046Z,7.37
2018-05-26T22:30:59.549Z,7.57
2018-05-26T22:33:26.977Z,6.77
2018-05-26T22:35:54.419Z,7.67
2018-05-26T22:38:21.857Z,7.87
2018-05-26T22:40:50.634Z,8.53
2018-05-26T22:43:18.360Z,7.67
2018-05-26T22:45:45.775Z,7.00
2018-05-26T22:48:13.984Z,7.53
2018-05-26T22:50:41.385Z,6.87
2018-05-26T22:53:08.810Z,6.90
2018-05-26T22:55:37.007Z,7.07
2018-05-26T22:58:04.482Z,7.93
2018-05-26T23:00:32.640Z,7.40
2018-05-26T23:03:00.844Z,8.40
2018-05-26T23:05:28.313Z,6.70
2018-05-26T23:07:55.789Z,6.83
2018-05-26T23:10:23.212Z,6.87
2018-05-26T23:12:50.616Z,7.37
2018-05-26T23:15:18.199Z,7.00
2018-05-26T23:17:46.361Z,7.30
2018-05-26T23:20:14.545Z,7.03
2018-05-26T23:22:42.728Z,7.80
2018-05-26T23:25:10.909Z,6.80
2018-05-26T23:27:39.082Z,6.73
2018-05-26T23:30:06.494Z,8.57
2018-05-26T23:32:33.913Z,8.53
2018-05-26T23:35:02.395Z,9.37
2018-05-26T23:37:29.821Z,7.40
2018-05-26T23:39:57.232Z,7.53
2018-05-26T23:42:24.690Z,7.83
2018-05-26T23:44:52.064Z,7.70
2018-05-26T23:47:19.484Z,7.80
2018-05-26T23:49:46.902Z,7.20
2018-05-26T23:52:14.328Z,8.33
2018-05-26T23:54:41.742Z,7.63
2018-05-26T23:57:09.164Z,7.97
2018-05-26T23:59:36.642Z,6.90
